Terminal Aerodrome Forecast
Issued by NWS Mt. Holly, NJ

Home | Current Version | Previous Version | Text Only | Print | Product List | Glossary On
Versions: 1 2 3 4 5 6 7 8 9 10 11 12 13 14 15 16 17 18 19 20
370
FTUS41 KPHI 121740
TAFILG
TAF
KILG 121740Z 1218/1318 23008KT P6SM SCT150
     FM122100 22006KT P6SM OVC060
     FM130300 22006KT 5SM -SHSN BKN030
     FM130800 28013G22KT P6SM OVC040
     FM131200 30020G33KT P6SM SCT050
     FM131700 30022G39KT P6SM BKN050=

USA.gov is the U.S. government's official web portal to all federal, state and local government web resources and services.